createdAt,value
2018-10-11T00:00:29.227Z,139.68
2018-10-11T00:02:57.210Z,113.72
2018-10-11T00:05:24.854Z,89.07
2018-10-11T00:07:53.688Z,98.82
2018-10-11T00:10:26.189Z,90.30
2018-10-11T00:12:54.851Z,77.22
2018-10-11T00:15:22.178Z,84.30
2018-10-11T00:17:53.455Z,62.27
2018-10-11T00:20:21.111Z,53.25
2018-10-11T00:22:54.210Z,43.30
2018-10-11T00:25:21.591Z,45.33
2018-10-11T00:27:49.574Z,42.10
2018-10-11T00:30:17.529Z,44.63
2018-10-11T00:32:46.319Z,43.92
2018-10-11T00:35:13.694Z,42.00
2018-10-11T00:37:42.209Z,41.55
2018-10-11T00:40:11.338Z,42.78
2018-10-11T00:42:39.351Z,42.43
2018-10-11T00:45:07.031Z,43.05
2018-10-11T00:47:34.377Z,43.42
2018-10-11T00:50:02.518Z,42.65
2018-10-11T00:52:30.137Z,40.52
2018-10-11T00:54:58.687Z,40.60
2018-10-11T00:57:30.686Z,40.12
2018-10-11T00:59:58.104Z,43.08
2018-10-11T01:02:26.408Z,44.20
2018-10-11T01:04:54.055Z,39.23
2018-10-11T01:07:21.546Z,40.58
2018-10-11T01:09:49.047Z,40.17
2018-10-11T01:12:21.345Z,39.70
2018-10-11T01:14:48.788Z,37.93
2018-10-11T01:17:16.236Z,37.38
2018-10-11T01:22:12.271Z,37.38
2018-10-11T01:24:40.001Z,38.88
2018-10-11T01:27:11.719Z,34.83
2018-10-11T01:29:43.596Z,36.53
2018-10-11T01:32:13.109Z,35.58
2018-10-11T01:34:40.548Z,34.40
2018-10-11T01:37:08.598Z,36.45
2018-10-11T01:42:03.180Z,34.23
2018-10-11T01:44:30.577Z,34.45
2018-10-11T01:46:58.075Z,36.15
2018-10-11T01:49:30.806Z,34.27
2018-10-11T01:51:58.275Z,38.92
2018-10-11T01:54:25.652Z,37.88
2018-10-11T01:56:57.455Z,36.68
2018-10-11T01:59:30.545Z,36.58
2018-10-11T02:02:02.372Z,37.03
2018-10-11T02:04:29.767Z,36.68
2018-10-11T02:06:57.157Z,36.93
2018-10-11T02:09:25.023Z,37.33
2018-10-11T02:11:52.347Z,34.45
2018-10-11T02:14:19.724Z,37.73
2018-10-11T02:16:47.045Z,33.80
2018-10-11T02:19:14.453Z,37.50
2018-10-11T02:21:41.934Z,34.58
2018-10-11T02:24:10.658Z,33.00
2018-10-11T02:26:39.196Z,34.13
2018-10-11T02:29:06.881Z,33.90
2018-10-11T02:31:34.263Z,34.65
2018-10-11T02:34:02.124Z,34.98
2018-10-11T02:36:30.190Z,32.73
2018-10-11T02:39:00.350Z,37.00
2018-10-11T02:41:27.672Z,38.55
2018-10-11T02:43:56.408Z,33.40
2018-10-11T02:46:28.451Z,33.88
2018-10-11T02:48:56.471Z,36.90
2018-10-11T02:51:23.937Z,33.60
2018-10-11T02:53:51.443Z,34.65
2018-10-11T02:56:20.207Z,32.75
2018-10-11T02:58:57.175Z,32.55
2018-10-11T03:01:25.445Z,34.73
2018-10-11T03:03:55.167Z,37.13
2018-10-11T03:06:26.546Z,37.53
2018-10-11T03:08:54.594Z,33.48
2018-10-11T03:11:22.175Z,33.40
2018-10-11T03:13:49.807Z,33.92
2018-10-11T03:16:18.174Z,36.77
2018-10-11T03:18:46.459Z,36.93
2018-10-11T03:21:15.153Z,34.33
2018-10-11T03:23:44.106Z,38.85
2018-10-11T03:26:12.518Z,35.45
2018-10-11T03:28:41.073Z,38.33
2018-10-11T03:31:08.527Z,38.88
2018-10-11T03:36:08.307Z,34.55
2018-10-11T03:38:35.730Z,36.75
2018-10-11T03:43:31.865Z,38.23
2018-10-11T03:45:59.575Z,37.10
2018-10-11T03:48:29.346Z,38.28
2018-10-11T03:51:00.996Z,38.58
2018-10-11T03:53:28.721Z,37.30
2018-10-11T03:55:56.438Z,38.13
2018-10-11T03:58:28.194Z,38.98
2018-10-11T04:01:00.907Z,38.17
2018-10-11T04:03:29.755Z,37.00
2018-10-11T04:05:57.445Z,40.20
2018-10-11T04:08:25.375Z,45.05
2018-10-11T04:10:53.189Z,41.35
2018-10-11T04:13:21.658Z,41.15
2018-10-11T04:15:49.157Z,39.25
2018-10-11T04:18:21.522Z,42.83
2018-10-11T04:20:49.447Z,38.85
2018-10-11T04:23:23.341Z,40.33
2018-10-11T04:25:51.195Z,38.05
2018-10-11T04:28:18.622Z,41.20
2018-10-11T04:30:46.458Z,41.18
2018-10-11T04:33:14.501Z,37.40
2018-10-11T04:35:46.867Z,40.58
2018-10-11T04:38:14.263Z,38.90
2018-10-11T04:40:42.320Z,38.95
2018-10-11T04:43:11.818Z,39.42
2018-10-11T04:45:40.085Z,40.23
2018-10-11T04:48:12.706Z,36.05
2018-10-11T04:50:42.146Z,38.75
2018-10-11T04:53:09.863Z,39.88
2018-10-11T04:55:41.970Z,39.42
2018-10-11T04:58:09.415Z,43.30
2018-10-11T05:00:37.330Z,40.40
2018-10-11T05:03:04.708Z,44.70
2018-10-11T05:05:32.015Z,42.15
2018-10-11T05:07:59.436Z,46.68
2018-10-11T05:10:26.998Z,50.73
2018-10-11T05:12:54.722Z,43.20
2018-10-11T05:15:22.191Z,48.63
2018-10-11T05:17:50.048Z,44.60
2018-10-11T05:20:17.357Z,46.37
2018-10-11T05:22:44.674Z,47.03
2018-10-11T05:25:12.037Z,46.45
2018-10-11T05:27:39.399Z,42.70
2018-10-11T05:30:06.819Z,46.70
2018-10-11T05:32:34.711Z,43.83
2018-10-11T05:35:02.057Z,42.08
2018-10-11T05:37:29.582Z,42.45
2018-10-11T05:39:56.917Z,41.70
2018-10-11T05:42:24.287Z,43.13
2018-10-11T05:44:51.829Z,38.38
2018-10-11T05:47:19.184Z,45.88
2018-10-11T05:49:46.609Z,41.00
2018-10-11T05:52:14.049Z,42.90
2018-10-11T05:54:42.030Z,42.15
2018-10-11T05:57:09.494Z,43.83
2018-10-11T05:59:37.441Z,42.17
2018-10-11T06:02:04.823Z,42.62
2018-10-11T06:04:32.153Z,46.15
2018-10-11T06:06:59.515Z,42.85
2018-10-11T06:09:26.915Z,45.78
2018-10-11T06:11:55.377Z,42.00
2018-10-11T06:14:23.627Z,45.38
2018-10-11T06:16:50.966Z,52.60
2018-10-11T06:19:18.316Z,41.65
2018-10-11T06:21:45.654Z,46.05
2018-10-11T06:24:12.954Z,42.80
2018-10-11T06:26:40.509Z,42.88
2018-10-11T06:29:07.910Z,43.48
2018-10-11T06:31:35.287Z,44.03
2018-10-11T06:34:02.626Z,44.00
2018-10-11T06:36:30.109Z,42.58
2018-10-11T06:38:58.582Z,37.63
2018-10-11T06:41:25.953Z,41.50
2018-10-11T06:43:53.310Z,45.23
2018-10-11T06:46:20.668Z,42.90
2018-10-11T06:48:48.019Z,43.25
2018-10-11T06:51:15.398Z,42.40
2018-10-11T06:53:42.744Z,39.65
2018-10-11T06:56:10.059Z,37.93
2018-10-11T06:58:37.443Z,41.90
2018-10-11T07:01:04.745Z,41.63
2018-10-11T07:03:32.034Z,42.08
2018-10-11T07:05:59.636Z,41.08
2018-10-11T07:08:26.918Z,38.20
2018-10-11T07:10:54.246Z,42.38
2018-10-11T07:13:21.557Z,42.27
2018-10-11T07:15:48.875Z,35.70
2018-10-11T07:18:16.261Z,38.08
2018-10-11T07:20:43.638Z,40.67
2018-10-11T07:23:10.946Z,39.85
2018-10-11T07:25:38.248Z,35.92
2018-10-11T07:28:05.603Z,39.27
2018-10-11T07:30:32.859Z,37.55
2018-10-11T07:33:00.262Z,37.50
2018-10-11T07:35:27.709Z,36.77
2018-10-11T07:37:54.833Z,36.83
2018-10-11T07:40:22.147Z,38.55
2018-10-11T07:42:49.437Z,35.52
2018-10-11T07:45:16.712Z,37.95
2018-10-11T07:47:44.012Z,41.20
2018-10-11T07:50:11.335Z,33.25
2018-10-11T07:52:38.619Z,37.38
2018-10-11T07:55:05.951Z,36.63
2018-10-11T07:57:33.287Z,34.55
2018-10-11T08:00:00.591Z,36.33
2018-10-11T08:02:27.968Z,33.80
2018-10-11T08:04:55.278Z,33.65
2018-10-11T08:07:22.725Z,34.25
2018-10-11T08:09:49.914Z,33.20
2018-10-11T08:12:17.200Z,36.75
2018-10-11T08:14:44.493Z,34.20
2018-10-11T08:17:12.157Z,31.10
2018-10-11T08:19:39.207Z,33.13
2018-10-11T08:22:06.667Z,31.90
2018-10-11T08:24:33.971Z,37.10
2018-10-11T08:27:01.263Z,32.27
2018-10-11T08:29:28.556Z,32.50
2018-10-11T08:31:55.854Z,31.40
2018-10-11T08:34:23.148Z,32.80
2018-10-11T08:36:50.430Z,30.97
2018-10-11T08:39:17.807Z,37.70
2018-10-11T08:41:45.143Z,43.83
2018-10-11T08:44:13.167Z,32.67
2018-10-11T08:46:40.477Z,33.10
2018-10-11T08:49:08.257Z,34.17
2018-10-11T08:51:35.544Z,30.07
2018-10-11T08:54:08.211Z,31.73
2018-10-11T08:56:35.558Z,28.50
2018-10-11T08:59:02.957Z,30.20
2018-10-11T09:01:30.188Z,28.80
2018-10-11T09:03:57.677Z,32.27
2018-10-11T09:06:24.830Z,28.37
2018-10-11T09:08:52.265Z,27.07
2018-10-11T09:11:19.716Z,28.17
2018-10-11T09:13:47.016Z,26.33
2018-10-11T09:16:14.304Z,25.27
2018-10-11T09:18:41.606Z,26.70
2018-10-11T09:21:09.079Z,30.13
2018-10-11T09:23:36.419Z,25.23
2018-10-11T09:26:03.681Z,24.97
2018-10-11T09:28:30.966Z,25.40
2018-10-11T09:30:58.228Z,26.00
2018-10-11T09:33:25.520Z,25.13
2018-10-11T09:35:52.794Z,26.50
2018-10-11T09:38:20.206Z,25.13
2018-10-11T09:40:47.627Z,25.70
2018-10-11T09:43:14.960Z,27.70
2018-10-11T09:45:42.246Z,25.00
2018-10-11T09:48:09.550Z,24.40
2018-10-11T09:50:36.894Z,25.50
2018-10-11T09:53:04.459Z,24.33
2018-10-11T09:55:31.756Z,24.70
2018-10-11T09:57:59.033Z,27.10
2018-10-11T10:00:31.803Z,26.83
2018-10-11T10:02:59.093Z,24.63
2018-10-11T10:05:26.354Z,26.07
2018-10-11T10:07:53.678Z,25.30
2018-10-11T10:10:20.963Z,23.27
2018-10-11T10:12:48.843Z,25.40
2018-10-11T10:15:16.188Z,24.43
2018-10-11T10:17:43.489Z,25.67
2018-10-11T10:20:10.930Z,28.10
2018-10-11T10:22:38.267Z,25.10
2018-10-11T10:25:05.590Z,25.93
2018-10-11T10:27:32.970Z,25.57
2018-10-11T10:30:00.277Z,25.87
2018-10-11T10:32:27.540Z,23.57
2018-10-11T10:34:54.795Z,24.43
2018-10-11T10:37:22.072Z,24.23
2018-10-11T10:39:49.488Z,25.70
2018-10-11T10:42:17.128Z,25.50
2018-10-11T10:44:44.407Z,25.70
2018-10-11T10:47:11.707Z,25.17
2018-10-11T10:49:39.002Z,24.20
2018-10-11T10:52:06.327Z,25.20
2018-10-11T10:54:34.827Z,24.63
2018-10-11T10:57:02.569Z,24.80
2018-10-11T10:59:29.939Z,23.57
2018-10-11T11:01:57.416Z,24.43
2018-10-11T11:04:25.080Z,23.73
2018-10-11T11:06:52.471Z,24.40
2018-10-11T11:09:19.786Z,24.57
2018-10-11T11:11:47.034Z,25.10
2018-10-11T11:14:15.401Z,22.80
2018-10-11T11:16:43.182Z,22.83
2018-10-11T11:19:10.947Z,24.80
2018-10-11T11:21:38.359Z,23.27
2018-10-11T11:24:05.682Z,25.40
2018-10-11T11:26:32.983Z,23.47
2018-10-11T11:29:00.675Z,22.10
2018-10-11T11:31:28.281Z,22.53
2018-10-11T11:33:55.558Z,21.97
2018-10-11T11:36:22.788Z,22.10
2018-10-11T11:38:50.127Z,20.30
2018-10-11T11:41:17.855Z,20.00
2018-10-11T11:43:45.408Z,19.83
2018-10-11T11:46:12.954Z,22.37
2018-10-11T11:48:40.234Z,21.03
2018-10-11T11:51:07.965Z,20.10
2018-10-11T11:53:35.238Z,25.23
2018-10-11T11:56:02.505Z,20.77
2018-10-11T11:58:29.799Z,23.00
2018-10-11T12:00:57.099Z,20.10
2018-10-11T12:03:24.370Z,19.80
2018-10-11T12:05:51.695Z,21.40
2018-10-11T12:08:18.966Z,20.37
2018-10-11T12:10:46.302Z,19.70
2018-10-11T12:13:13.528Z,19.80
2018-10-11T12:15:42.102Z,20.50
2018-10-11T12:18:09.807Z,18.67
2018-10-11T12:20:38.386Z,19.20
2018-10-11T12:23:06.857Z,22.00
2018-10-11T12:25:34.551Z,19.90
2018-10-11T12:28:01.892Z,18.47
2018-10-11T12:30:29.318Z,19.30
2018-10-11T12:32:56.600Z,19.53
2018-10-11T12:35:24.859Z,19.57
2018-10-11T12:37:52.167Z,18.17
2018-10-11T12:40:19.790Z,19.57
2018-10-11T12:42:47.086Z,18.90
2018-10-11T12:45:15.113Z,19.27
2018-10-11T12:47:42.404Z,18.83
2018-10-11T12:50:10.810Z,18.00
2018-10-11T12:52:38.009Z,18.60
2018-10-11T12:55:05.651Z,19.00
2018-10-11T12:57:33.024Z,19.30
2018-10-11T13:00:00.241Z,19.47
2018-10-11T13:02:27.715Z,19.53
2018-10-11T13:04:54.994Z,17.60
2018-10-11T13:07:22.292Z,19.03
2018-10-11T13:09:49.679Z,18.53
2018-10-11T13:12:17.006Z,18.73
2018-10-11T13:14:44.260Z,19.53
2018-10-11T13:17:11.565Z,18.83
2018-10-11T13:19:38.840Z,19.27
2018-10-11T13:22:06.163Z,18.30
2018-10-11T13:24:36.681Z,20.47
2018-10-11T13:27:00.974Z,20.23
2018-10-11T13:29:28.520Z,18.77
2018-10-11T13:31:56.674Z,19.87
2018-10-11T13:34:23.999Z,20.00
2018-10-11T13:36:51.320Z,20.10
2018-10-11T13:39:18.622Z,21.13
2018-10-11T13:41:46.059Z,19.20
2018-10-11T13:44:13.206Z,22.60
2018-10-11T13:46:40.511Z,20.23
2018-10-11T13:49:07.791Z,19.57
2018-10-11T13:51:35.193Z,20.37
2018-10-11T13:54:02.519Z,20.23
2018-10-11T13:56:29.933Z,19.90
2018-10-11T13:58:58.094Z,20.17
2018-10-11T14:01:25.374Z,21.10
2018-10-11T14:03:52.698Z,23.20
2018-10-11T14:06:20.203Z,21.40
2018-10-11T14:08:47.525Z,20.53
2018-10-11T14:11:15.063Z,20.37
2018-10-11T14:13:47.325Z,20.90
2018-10-11T14:16:14.672Z,22.63
2018-10-11T14:18:47.507Z,19.73
2018-10-11T14:21:14.942Z,22.80
2018-10-11T14:23:42.303Z,19.90
2018-10-11T14:26:09.590Z,21.50
2018-10-11T14:28:36.926Z,22.37
2018-10-11T14:31:04.254Z,22.00
2018-10-11T14:33:31.597Z,23.73
2018-10-11T14:35:58.878Z,21.37
2018-10-11T14:38:26.426Z,22.23
2018-10-11T14:40:53.729Z,21.57
2018-10-11T14:43:21.060Z,22.13
2018-10-11T14:45:48.359Z,21.37
2018-10-11T14:48:15.708Z,19.90
2018-10-11T14:50:43.363Z,21.10
2018-10-11T14:53:10.635Z,22.40
2018-10-11T14:55:37.984Z,23.17
2018-10-11T14:58:06.196Z,20.63
2018-10-11T15:00:33.496Z,20.67
2018-10-11T15:03:00.981Z,26.50
2018-10-11T15:05:28.293Z,29.50
2018-10-11T15:07:55.691Z,19.87
2018-10-11T15:10:23.042Z,20.70
2018-10-11T15:12:50.394Z,22.50
2018-10-11T15:15:17.732Z,21.10
2018-10-11T15:17:45.040Z,20.00
2018-10-11T15:20:12.355Z,19.67
2018-10-11T15:22:39.698Z,20.97
2018-10-11T15:25:07.176Z,19.83
2018-10-11T15:27:34.602Z,20.30
2018-10-11T15:30:01.953Z,22.47
2018-10-11T15:32:29.246Z,21.20
2018-10-11T15:34:56.581Z,24.03
2018-10-11T15:37:23.918Z,23.70
2018-10-11T15:39:51.272Z,19.53
2018-10-11T15:42:18.657Z,21.63
2018-10-11T15:44:45.986Z,19.30
2018-10-11T15:47:13.328Z,24.93
2018-10-11T15:49:40.708Z,21.37
2018-10-11T15:52:08.097Z,19.23
2018-10-11T15:54:35.287Z,20.20
2018-10-11T15:57:02.620Z,23.00
2018-10-11T15:59:29.940Z,25.33
2018-10-11T16:01:57.855Z,22.53
2018-10-11T16:04:25.133Z,20.60
2018-10-11T16:06:52.440Z,23.60
2018-10-11T16:09:19.822Z,24.37
2018-10-11T16:11:47.185Z,19.30
2018-10-11T16:14:14.510Z,21.70
2018-10-11T16:16:41.851Z,21.40
2018-10-11T16:19:09.211Z,23.20
2018-10-11T16:21:36.545Z,26.10
2018-10-11T16:24:03.866Z,21.30
2018-10-11T16:26:31.186Z,19.93
2018-10-11T16:28:58.865Z,21.17
2018-10-11T16:31:26.207Z,20.20
2018-10-11T16:33:53.565Z,20.37
2018-10-11T16:36:20.850Z,23.30
2018-10-11T16:38:48.239Z,22.20
2018-10-11T16:41:15.590Z,24.30
2018-10-11T16:43:42.923Z,20.33
2018-10-11T16:46:10.282Z,19.80
2018-10-11T16:48:37.673Z,19.83
2018-10-11T16:51:05.100Z,23.40
2018-10-11T16:53:33.141Z,20.47
2018-10-11T16:56:00.396Z,22.10
2018-10-11T16:58:27.774Z,22.47
2018-10-11T17:00:55.058Z,21.13
2018-10-11T17:03:23.148Z,21.00
2018-10-11T17:05:50.507Z,22.20
2018-10-11T17:08:18.077Z,22.17
2018-10-11T17:10:46.279Z,24.70
2018-10-11T17:13:13.676Z,24.35
2018-10-11T17:15:41.133Z,21.40
2018-10-11T17:18:09.623Z,24.70
2018-10-11T17:20:37.082Z,22.67
2018-10-11T17:23:04.511Z,23.10
2018-10-11T17:25:32.904Z,22.17
2018-10-11T17:28:02.165Z,23.20
2018-10-11T17:30:29.563Z,24.57
2018-10-11T17:32:56.934Z,23.80
2018-10-11T17:35:25.455Z,22.90
2018-10-11T17:37:53.072Z,26.87
2018-10-11T17:40:21.741Z,22.90
2018-10-11T17:42:50.177Z,25.82
2018-10-11T17:45:19.719Z,25.30
2018-10-11T17:47:47.130Z,22.80
2018-10-11T17:50:14.550Z,23.32
2018-10-11T17:52:41.975Z,23.20
2018-10-11T17:55:09.423Z,23.92
2018-10-11T17:57:36.828Z,23.10
2018-10-11T18:00:05.053Z,27.73
2018-10-11T18:02:36.934Z,25.33
2018-10-11T18:05:04.332Z,25.68
2018-10-11T18:07:31.882Z,24.90
2018-10-11T18:09:59.356Z,25.25
2018-10-11T18:12:27.452Z,23.32
2018-10-11T18:14:55.880Z,23.67
2018-10-11T18:17:24.251Z,24.85
2018-10-11T18:19:52.165Z,22.98
2018-10-11T18:22:20.055Z,22.65
2018-10-11T18:24:47.418Z,24.30
2018-10-11T18:27:19.252Z,24.52
2018-10-11T18:32:20.609Z,23.55
2018-10-11T18:34:48.111Z,30.65
2018-10-11T18:37:15.840Z,26.07
2018-10-11T18:39:47.301Z,26.53
2018-10-11T18:42:14.801Z,22.37
2018-10-11T18:44:42.702Z,25.30
2018-10-11T18:47:14.378Z,25.43
2018-10-11T18:49:41.870Z,28.00
2018-10-11T18:52:09.280Z,23.80
2018-10-11T18:57:04.692Z,23.15
2018-10-11T18:59:32.939Z,24.10
2018-10-11T19:02:00.789Z,24.77
2018-10-11T19:04:28.231Z,25.55
2018-10-11T19:06:59.592Z,26.07
2018-10-11T19:09:31.401Z,24.70
2018-10-11T19:11:58.865Z,26.85
2018-10-11T19:14:26.409Z,24.37
2018-10-11T19:16:53.905Z,23.77
2018-10-11T19:19:23.041Z,26.90
2018-10-11T19:21:50.519Z,22.40
2018-10-11T19:24:17.896Z,24.77
2018-10-11T19:26:46.019Z,24.72
2018-10-11T19:29:13.377Z,23.40
2018-10-11T19:31:40.864Z,25.63
2018-10-11T19:34:12.952Z,23.87
2018-10-11T19:36:44.819Z,25.27
2018-10-11T19:39:13.769Z,24.52
2018-10-11T19:41:41.312Z,24.77
2018-10-11T19:44:15.998Z,26.40
2018-10-11T19:46:43.545Z,24.63
2018-10-11T19:49:11.075Z,23.40
2018-10-11T19:51:39.638Z,24.00
2018-10-11T19:54:07.136Z,24.20
2018-10-11T19:56:34.543Z,24.98
2018-10-11T19:59:02.198Z,22.37
2018-10-11T20:01:29.784Z,24.43
2018-10-11T20:03:57.728Z,23.65
2018-10-11T20:06:25.972Z,22.73
2018-10-11T20:08:53.446Z,24.25
2018-10-11T20:11:21.300Z,25.08
2018-10-11T20:13:48.790Z,23.00
2018-10-11T20:16:16.251Z,26.68
2018-10-11T20:18:44.210Z,22.90
2018-10-11T20:21:12.177Z,25.15
2018-10-11T20:23:39.534Z,23.85
2018-10-11T20:26:07.548Z,25.08
2018-10-11T20:28:34.913Z,23.55
2018-10-11T20:31:02.444Z,22.75
2018-10-11T20:33:29.900Z,26.02
2018-10-11T20:35:57.443Z,25.05
2018-10-11T20:38:24.910Z,26.42
2018-10-11T20:40:52.466Z,24.10
2018-10-11T20:43:20.069Z,22.70
2018-10-11T20:45:47.449Z,24.02
2018-10-11T20:48:16.235Z,22.67
2018-10-11T20:50:47.444Z,23.15
2018-10-11T20:53:14.812Z,24.70
2018-10-11T20:55:43.031Z,26.93
2018-10-11T20:58:11.193Z,24.23
2018-10-11T21:00:39.235Z,24.12
2018-10-11T21:03:11.528Z,22.77
2018-10-11T21:05:42.386Z,23.67
2018-10-11T21:08:09.812Z,25.50
2018-10-11T21:10:37.226Z,22.07
2018-10-11T21:13:04.903Z,24.40
2018-10-11T21:15:34.147Z,23.32
2018-10-11T21:18:02.149Z,23.32
2018-10-11T21:20:30.105Z,24.00
2018-10-11T21:22:58.146Z,24.60
2018-10-11T21:25:25.658Z,23.22
2018-10-11T21:27:53.322Z,23.80
2018-10-11T21:30:20.919Z,25.43
2018-10-11T21:32:55.643Z,23.85
2018-10-11T21:35:24.094Z,23.90
2018-10-11T21:37:52.163Z,24.30
2018-10-11T21:40:23.985Z,26.80
2018-10-11T21:42:51.500Z,24.65
2018-10-11T21:45:19.359Z,24.90
2018-10-11T21:47:46.747Z,23.83
2018-10-11T21:50:14.711Z,24.02
2018-10-11T21:52:42.193Z,25.77
2018-10-11T21:55:09.599Z,23.92
2018-10-11T21:57:37.697Z,24.00
2018-10-11T22:00:07.406Z,25.60
2018-10-11T22:02:35.502Z,25.27
2018-10-11T22:05:07.363Z,25.32
2018-10-11T22:07:34.900Z,25.48
2018-10-11T22:10:02.281Z,23.25
2018-10-11T22:12:29.755Z,25.45
2018-10-11T22:14:59.220Z,24.43
2018-10-11T22:17:26.609Z,30.43
2018-10-11T22:19:58.514Z,23.67
2018-10-11T22:22:26.092Z,23.27
2018-10-11T22:24:54.605Z,24.27
2018-10-11T22:27:25.816Z,26.10
2018-10-11T22:29:53.304Z,25.43
2018-10-11T22:32:21.516Z,23.57
2018-10-11T22:34:54.065Z,27.17
2018-10-11T22:37:21.612Z,25.97
2018-10-11T22:39:50.218Z,25.75
2018-10-11T22:42:19.419Z,24.45
2018-10-11T22:44:48.121Z,26.82
2018-10-11T22:47:15.545Z,29.65
2018-10-11T22:49:43.830Z,26.17
2018-10-11T22:52:11.167Z,31.07
2018-10-11T22:54:38.568Z,25.90
2018-10-11T22:57:06.192Z,25.27
2018-10-11T22:59:34.126Z,25.15
2018-10-11T23:02:01.559Z,28.52
2018-10-11T23:04:33.320Z,25.08
2018-10-11T23:07:05.959Z,27.55
2018-10-11T23:09:33.352Z,25.82
2018-10-11T23:12:00.750Z,26.52
2018-10-11T23:14:28.522Z,27.13
2018-10-11T23:16:59.727Z,24.18
2018-10-11T23:19:33.009Z,25.57
2018-10-11T23:22:05.109Z,27.42
2018-10-11T23:24:32.939Z,25.52
2018-10-11T23:27:02.061Z,24.12
2018-10-11T23:29:29.457Z,24.10
2018-10-11T23:32:01.217Z,24.85
2018-10-11T23:34:30.219Z,24.65
2018-10-11T23:36:57.580Z,23.77
2018-10-11T23:39:25.037Z,23.07
2018-10-11T23:42:03.599Z,23.67
2018-10-11T23:44:30.994Z,22.75
2018-10-11T23:46:59.384Z,23.87
2018-10-11T23:49:27.158Z,23.90
2018-10-11T23:51:54.576Z,22.75
2018-10-11T23:54:28.013Z,23.67
2018-10-11T23:56:58.662Z,23.20
2018-10-11T23:59:26.402Z,22.02
